sensor_id;sensor_type;location;lat;lon;timestamp;temperature;humidity
3246;DHT22;1635;48.000;10.582;2022-08-11T00:01:27;12.50;99.90
3246;DHT22;1635;48.000;10.582;2022-08-11T00:03:59;12.30;99.90
3246;DHT22;1635;48.000;10.582;2022-08-11T00:06:41;12.30;99.90
3246;DHT22;1635;48.000;10.582;2022-08-11T00:09:15;12.20;99.90
3246;DHT22;1635;48.000;10.582;2022-08-11T00:11:53;12.10;99.90
3246;DHT22;1635;48.000;10.582;2022-08-11T00:14:26;12.00;99.90
3246;DHT22;1635;48.000;10.582;2022-08-11T00:17:10;12.10;99.90
3246;DHT22;1635;48.000;10.582;2022-08-11T00:19:48;12.10;99.90
3246;DHT22;1635;48.000;10.582;2022-08-11T00:22:39;12.10;99.90
3246;DHT22;1635;48.000;10.582;2022-08-11T00:25:11;12.00;99.90
3246;DHT22;1635;48.000;10.582;2022-08-11T00:27:40;12.00;99.90
3246;DHT22;1635;48.000;10.582;2022-08-11T00:30:09;11.90;99.90
3246;DHT22;1635;48.000;10.582;2022-08-11T00:32:40;11.90;99.90
3246;DHT22;1635;48.000;10.582;2022-08-11T00:35:12;12.00;99.90
3246;DHT22;1635;48.000;10.582;2022-08-11T00:38:03;11.90;99.90
3246;DHT22;1635;48.000;10.582;2022-08-11T00:40:50;12.00;99.90
3246;DHT22;1635;48.000;10.582;2022-08-11T00:46:39;12.00;99.90
3246;DHT22;1635;48.000;10.582;2022-08-11T01:01:47;11.50;99.90
3246;DHT22;1635;48.000;10.582;2022-08-11T01:13:51;11.50;99.90
3246;DHT22;1635;48.000;10.582;2022-08-11T01:31:31;11.20;99.90
3246;DHT22;1635;48.000;10.582;2022-08-11T01:46:29;11.00;99.90
3246;DHT22;1635;48.000;10.582;2022-08-11T01:52:27;11.00;99.90
3246;DHT22;1635;48.000;10.582;2022-08-11T01:55:24;11.00;99.90
3246;DHT22;1635;48.000;10.582;2022-08-11T01:58:26;11.00;99.90
3246;DHT22;1635;48.000;10.582;2022-08-11T02:04:48;11.20;99.90
3246;DHT22;1635;48.000;10.582;2022-08-11T02:25:57;11.40;99.90
3246;DHT22;1635;48.000;10.582;2022-08-11T02:31:23;11.40;99.90
3246;DHT22;1635;48.000;10.582;2022-08-11T02:34:58;11.40;99.90
3246;DHT22;1635;48.000;10.582;2022-08-11T02:45:43;11.40;99.90
3246;DHT22;1635;48.000;10.582;2022-08-11T02:57:28;11.30;99.90
3246;DHT22;1635;48.000;10.582;2022-08-11T03:02:59;11.10;99.90
3246;DHT22;1635;48.000;10.582;2022-08-11T03:08:53;10.90;99.90
3246;DHT22;1635;48.000;10.582;2022-08-11T03:11:41;10.90;99.90
3246;DHT22;1635;48.000;10.582;2022-08-11T03:15:18;10.80;99.90
3246;DHT22;1635;48.000;10.582;2022-08-11T03:23:17;10.60;99.90
3246;DHT22;1635;48.000;10.582;2022-08-11T03:26:21;10.70;99.90
3246;DHT22;1635;48.000;10.582;2022-08-11T03:29:19;10.50;99.90
3246;DHT22;1635;48.000;10.582;2022-08-11T03:32:11;10.40;99.90
3246;DHT22;1635;48.000;10.582;2022-08-11T03:34:47;10.30;99.90
3246;DHT22;1635;48.000;10.582;2022-08-11T03:40:25;10.20;99.90
3246;DHT22;1635;48.000;10.582;2022-08-11T03:47:23;10.10;99.90
3246;DHT22;1635;48.000;10.582;2022-08-11T03:50:11;10.00;99.90
3246;DHT22;1635;48.000;10.582;2022-08-11T03:52:51;9.90;99.90
3246;DHT22;1635;48.000;10.582;2022-08-11T03:56:03;9.90;99.90
3246;DHT22;1635;48.000;10.582;2022-08-11T04:07:59;9.80;99.90
3246;DHT22;1635;48.000;10.582;2022-08-11T04:17:17;9.70;99.90
3246;DHT22;1635;48.000;10.582;2022-08-11T04:28:57;9.80;99.90
3246;DHT22;1635;48.000;10.582;2022-08-11T04:47:01;10.00;99.90
3246;DHT22;1635;48.000;10.582;2022-08-11T04:52:57;10.00;99.90
3246;DHT22;1635;48.000;10.582;2022-08-11T04:56:13;10.10;99.90
3246;DHT22;1635;48.000;10.582;2022-08-11T05:13:49;10.80;99.90
3246;DHT22;1635;48.000;10.582;2022-08-11T05:16:50;11.00;99.90
3246;DHT22;1635;48.000;10.582;2022-08-11T05:19:55;11.20;99.90
3246;DHT22;1635;48.000;10.582;2022-08-11T05:22:47;11.30;99.90
3246;DHT22;1635;48.000;10.582;2022-08-11T05:25:45;11.50;99.90
3246;DHT22;1635;48.000;10.582;2022-08-11T05:28:58;11.70;99.90
3246;DHT22;1635;48.000;10.582;2022-08-11T05:31:56;11.90;99.90
3246;DHT22;1635;48.000;10.582;2022-08-11T05:34:50;12.20;99.90
3246;DHT22;1635;48.000;10.582;2022-08-11T05:40:10;12.90;99.90
3246;DHT22;1635;48.000;10.582;2022-08-11T05:43:11;13.20;99.90
3246;DHT22;1635;48.000;10.582;2022-08-11T05:46:00;13.40;99.90
3246;DHT22;1635;48.000;10.582;2022-08-11T05:48:48;13.70;99.90
3246;DHT22;1635;48.000;10.582;2022-08-11T05:51:40;13.90;99.90
3246;DHT22;1635;48.000;10.582;2022-08-11T05:54:39;14.10;99.90
3246;DHT22;1635;48.000;10.582;2022-08-11T05:57:36;14.20;99.90
3246;DHT22;1635;48.000;10.582;2022-08-11T06:00:22;14.30;99.90
3246;DHT22;1635;48.000;10.582;2022-08-11T06:02:53;14.40;99.90
3246;DHT22;1635;48.000;10.582;2022-08-11T06:05:37;14.50;99.90
3246;DHT22;1635;48.000;10.582;2022-08-11T06:08:11;14.60;99.90
3246;DHT22;1635;48.000;10.582;2022-08-11T06:10:42;14.60;99.90
3246;DHT22;1635;48.000;10.582;2022-08-11T06:13:14;14.70;99.90
3246;DHT22;1635;48.000;10.582;2022-08-11T06:15:49;14.80;99.90
3246;DHT22;1635;48.000;10.582;2022-08-11T06:18:19;15.00;99.90
3246;DHT22;1635;48.000;10.582;2022-08-11T06:20:47;15.10;99.90
3246;DHT22;1635;48.000;10.582;2022-08-11T06:23:17;15.10;99.90
3246;DHT22;1635;48.000;10.582;2022-08-11T06:25:47;15.20;99.90
3246;DHT22;1635;48.000;10.582;2022-08-11T06:28:15;15.20;99.90
3246;DHT22;1635;48.000;10.582;2022-08-11T06:30:48;15.30;99.90
3246;DHT22;1635;48.000;10.582;2022-08-11T06:36:34;15.60;99.90
3246;DHT22;1635;48.000;10.582;2022-08-11T06:39:20;15.80;99.90
3246;DHT22;1635;48.000;10.582;2022-08-11T06:42:05;15.80;99.90
3246;DHT22;1635;48.000;10.582;2022-08-11T06:47:44;15.90;99.90
3246;DHT22;1635;48.000;10.582;2022-08-11T06:50:17;16.00;99.90
3246;DHT22;1635;48.000;10.582;2022-08-11T06:53:08;16.20;99.90
3246;DHT22;1635;48.000;10.582;2022-08-11T06:55:42;16.30;99.90
3246;DHT22;1635;48.000;10.582;2022-08-11T06:58:37;16.30;99.90
3246;DHT22;1635;48.000;10.582;2022-08-11T07:01:47;16.50;99.90
3246;DHT22;1635;48.000;10.582;2022-08-11T07:04:27;16.60;99.90
3246;DHT22;1635;48.000;10.582;2022-08-11T07:10:32;16.80;99.90
3246;DHT22;1635;48.000;10.582;2022-08-11T07:13:26;16.90;99.90
3246;DHT22;1635;48.000;10.582;2022-08-11T07:16:19;17.20;99.90
3246;DHT22;1635;48.000;10.582;2022-08-11T07:19:06;17.40;99.90
3246;DHT22;1635;48.000;10.582;2022-08-11T07:21:54;17.50;99.90
3246;DHT22;1635;48.000;10.582;2022-08-11T07:28:16;17.80;99.90
3246;DHT22;1635;48.000;10.582;2022-08-11T07:31:07;18.30;99.90
3246;DHT22;1635;48.000;10.582;2022-08-11T07:33:51;19.20;99.90
3246;DHT22;1635;48.000;10.582;2022-08-11T07:36:41;20.10;99.90
3246;DHT22;1635;48.000;10.582;2022-08-11T07:39:15;20.80;99.90
3246;DHT22;1635;48.000;10.582;2022-08-11T07:41:47;21.50;99.90
3246;DHT22;1635;48.000;10.582;2022-08-11T07:44:16;21.90;99.90
3246;DHT22;1635;48.000;10.582;2022-08-11T07:46:52;22.10;99.90
3246;DHT22;1635;48.000;10.582;2022-08-11T07:49:39;22.80;99.90
3246;DHT22;1635;48.000;10.582;2022-08-11T07:52:33;22.70;99.90
3246;DHT22;1635;48.000;10.582;2022-08-11T07:55:05;23.60;99.90
3246;DHT22;1635;48.000;10.582;2022-08-11T07:57:37;23.50;99.90
3246;DHT22;1635;48.000;10.582;2022-08-11T08:00:55;24.00;99.90
3246;DHT22;1635;48.000;10.582;2022-08-11T08:03:48;23.60;99.90
3246;DHT22;1635;48.000;10.582;2022-08-11T08:06:36;24.50;99.90
3246;DHT22;1635;48.000;10.582;2022-08-11T08:09:25;24.70;99.90
3246;DHT22;1635;48.000;10.582;2022-08-11T08:12:12;24.80;99.90
3246;DHT22;1635;48.000;10.582;2022-08-11T08:15:04;24.60;99.90
3246;DHT22;1635;48.000;10.582;2022-08-11T08:17:53;24.50;99.90
3246;DHT22;1635;48.000;10.582;2022-08-11T08:20:46;24.60;99.90
3246;DHT22;1635;48.000;10.582;2022-08-11T08:23:15;24.80;99.90
3246;DHT22;1635;48.000;10.582;2022-08-11T08:25:44;24.80;99.90
3246;DHT22;1635;48.000;10.582;2022-08-11T08:28:17;25.10;99.90
3246;DHT22;1635;48.000;10.582;2022-08-11T08:30:48;25.10;99.90
3246;DHT22;1635;48.000;10.582;2022-08-11T08:33:26;25.40;99.90
3246;DHT22;1635;48.000;10.582;2022-08-11T08:35:57;25.00;99.90
3246;DHT22;1635;48.000;10.582;2022-08-11T08:38:51;24.90;99.90
3246;DHT22;1635;48.000;10.582;2022-08-11T08:41:31;24.90;99.90
3246;DHT22;1635;48.000;10.582;2022-08-11T08:44:06;25.60;99.90
3246;DHT22;1635;48.000;10.582;2022-08-11T08:46:57;25.40;99.90
3246;DHT22;1635;48.000;10.582;2022-08-11T08:49:33;25.30;99.90
3246;DHT22;1635;48.000;10.582;2022-08-11T08:52:08;25.40;99.90
3246;DHT22;1635;48.000;10.582;2022-08-11T08:55:03;25.20;99.90
3246;DHT22;1635;48.000;10.582;2022-08-11T08:57:35;25.40;99.90
3246;DHT22;1635;48.000;10.582;2022-08-11T09:00:07;25.60;99.90
3246;DHT22;1635;48.000;10.582;2022-08-11T09:02:40;25.60;99.90
3246;DHT22;1635;48.000;10.582;2022-08-11T09:05:09;25.70;99.90
3246;DHT22;1635;48.000;10.582;2022-08-11T09:07:38;25.70;99.90
3246;DHT22;1635;48.000;10.582;2022-08-11T09:10:09;25.60;99.90
3246;DHT22;1635;48.000;10.582;2022-08-11T09:12:39;25.90;99.90
3246;DHT22;1635;48.000;10.582;2022-08-11T09:15:10;25.90;99.90
3246;DHT22;1635;48.000;10.582;2022-08-11T09:17:47;25.90;99.90
3246;DHT22;1635;48.000;10.582;2022-08-11T09:20:24;26.40;99.90
3246;DHT22;1635;48.000;10.582;2022-08-11T09:22:58;26.20;99.90
3246;DHT22;1635;48.000;10.582;2022-08-11T09:26:09;26.60;99.90
3246;DHT22;1635;48.000;10.582;2022-08-11T09:28:58;26.80;99.90
3246;DHT22;1635;48.000;10.582;2022-08-11T09:31:30;27.20;99.90
3246;DHT22;1635;48.000;10.582;2022-08-11T09:34:08;27.20;99.90
3246;DHT22;1635;48.000;10.582;2022-08-11T09:36:38;27.50;99.90
3246;DHT22;1635;48.000;10.582;2022-08-11T09:39:28;27.30;99.90
3246;DHT22;1635;48.000;10.582;2022-08-11T09:42:20;27.40;99.90
3246;DHT22;1635;48.000;10.582;2022-08-11T09:44:51;27.10;99.90
3246;DHT22;1635;48.000;10.582;2022-08-11T09:47:27;27.20;99.90
3246;DHT22;1635;48.000;10.582;2022-08-11T09:49:59;27.10;99.90
3246;DHT22;1635;48.000;10.582;2022-08-11T09:52:33;27.40;99.90
3246;DHT22;1635;48.000;10.582;2022-08-11T09:55:03;27.30;99.90
3246;DHT22;1635;48.000;10.582;2022-08-11T09:57:44;27.20;99.90
3246;DHT22;1635;48.000;10.582;2022-08-11T10:00:33;27.40;99.90
3246;DHT22;1635;48.000;10.582;2022-08-11T10:03:25;27.80;99.90
3246;DHT22;1635;48.000;10.582;2022-08-11T10:05:58;27.90;99.90
3246;DHT22;1635;48.000;10.582;2022-08-11T10:08:46;27.70;99.90
3246;DHT22;1635;48.000;10.582;2022-08-11T10:11:20;27.70;99.90
3246;DHT22;1635;48.000;10.582;2022-08-11T10:13:51;27.60;99.90
3246;DHT22;1635;48.000;10.582;2022-08-11T10:17:05;27.60;99.90
3246;DHT22;1635;48.000;10.582;2022-08-11T10:19:34;27.70;99.90
3246;DHT22;1635;48.000;10.582;2022-08-11T10:22:05;27.40;99.90
3246;DHT22;1635;48.000;10.582;2022-08-11T10:24:55;28.00;99.90
3246;DHT22;1635;48.000;10.582;2022-08-11T10:27:46;28.70;99.90
3246;DHT22;1635;48.000;10.582;2022-08-11T10:30:46;28.30;99.90
3246;DHT22;1635;48.000;10.582;2022-08-11T10:33:40;28.70;99.90
3246;DHT22;1635;48.000;10.582;2022-08-11T10:36:37;28.30;99.90
3246;DHT22;1635;48.000;10.582;2022-08-11T10:39:17;28.50;99.90
3246;DHT22;1635;48.000;10.582;2022-08-11T10:41:47;28.90;99.90
3246;DHT22;1635;48.000;10.582;2022-08-11T10:44:46;29.30;99.90
3246;DHT22;1635;48.000;10.582;2022-08-11T10:47:17;29.30;99.90
3246;DHT22;1635;48.000;10.582;2022-08-11T10:50:16;29.50;99.90
3246;DHT22;1635;48.000;10.582;2022-08-11T10:53:03;29.10;99.90
3246;DHT22;1635;48.000;10.582;2022-08-11T10:55:49;28.70;99.90
3246;DHT22;1635;48.000;10.582;2022-08-11T10:58:37;29.50;99.90
3246;DHT22;1635;48.000;10.582;2022-08-11T11:03:57;29.80;99.90
3246;DHT22;1635;48.000;10.582;2022-08-11T11:09:20;29.90;99.90
3246;DHT22;1635;48.000;10.582;2022-08-11T11:12:22;30.00;99.90
3246;DHT22;1635;48.000;10.582;2022-08-11T11:15:05;29.90;99.90
3246;DHT22;1635;48.000;10.582;2022-08-11T11:18:00;30.10;99.90
3246;DHT22;1635;48.000;10.582;2022-08-11T11:20:50;29.70;99.90
3246;DHT22;1635;48.000;10.582;2022-08-11T11:37:32;31.10;99.90
3246;DHT22;1635;48.000;10.582;2022-08-11T11:40:08;31.40;99.90
3246;DHT22;1635;48.000;10.582;2022-08-11T11:42:39;31.90;99.90
3246;DHT22;1635;48.000;10.582;2022-08-11T11:45:09;30.80;99.90
3246;DHT22;1635;48.000;10.582;2022-08-11T11:47:53;30.80;99.90
3246;DHT22;1635;48.000;10.582;2022-08-11T11:50:26;31.00;99.90
3246;DHT22;1635;48.000;10.582;2022-08-11T11:53:05;31.10;99.90
3246;DHT22;1635;48.000;10.582;2022-08-11T11:55:34;31.90;99.70
3246;DHT22;1635;48.000;10.582;2022-08-11T11:58:03;32.00;99.90
3246;DHT22;1635;48.000;10.582;2022-08-11T12:00:51;31.50;99.50
3246;DHT22;1635;48.000;10.582;2022-08-11T12:03:42;30.80;99.90
3246;DHT22;1635;48.000;10.582;2022-08-11T12:06:12;30.70;99.90
3246;DHT22;1635;48.000;10.582;2022-08-11T12:08:43;32.00;99.70
3246;DHT22;1635;48.000;10.582;2022-08-11T12:11:12;31.40;98.80
3246;DHT22;1635;48.000;10.582;2022-08-11T12:14:00;30.90;99.70
3246;DHT22;1635;48.000;10.582;2022-08-11T12:16:34;30.70;99.20
3246;DHT22;1635;48.000;10.582;2022-08-11T12:19:06;30.40;99.90
3246;DHT22;1635;48.000;10.582;2022-08-11T12:21:35;30.40;99.90
3246;DHT22;1635;48.000;10.582;2022-08-11T12:24:04;30.50;99.90
3246;DHT22;1635;48.000;10.582;2022-08-11T12:26:56;30.10;99.40
3246;DHT22;1635;48.000;10.582;2022-08-11T12:29:50;29.60;99.90
3246;DHT22;1635;48.000;10.582;2022-08-11T12:32:26;30.70;99.90
3246;DHT22;1635;48.000;10.582;2022-08-11T12:34:54;31.50;99.30
3246;DHT22;1635;48.000;10.582;2022-08-11T12:37:55;31.30;99.10
3246;DHT22;1635;48.000;10.582;2022-08-11T12:40:38;31.80;98.40
3246;DHT22;1635;48.000;10.582;2022-08-11T12:43:44;33.10;97.50
3246;DHT22;1635;48.000;10.582;2022-08-11T12:46:35;33.60;97.10
3246;DHT22;1635;48.000;10.582;2022-08-11T12:49:12;33.20;97.10
3246;DHT22;1635;48.000;10.582;2022-08-11T12:52:09;32.10;97.60
3246;DHT22;1635;48.000;10.582;2022-08-11T12:57:40;31.50;97.20
3246;DHT22;1635;48.000;10.582;2022-08-11T13:00:27;31.80;97.30
3246;DHT22;1635;48.000;10.582;2022-08-11T13:03:18;32.40;96.90
3246;DHT22;1635;48.000;10.582;2022-08-11T13:06:06;32.40;96.70
3246;DHT22;1635;48.000;10.582;2022-08-11T13:08:37;33.30;96.00
3246;DHT22;1635;48.000;10.582;2022-08-11T13:11:08;33.70;97.00
3246;DHT22;1635;48.000;10.582;2022-08-11T13:14:15;33.30;96.70
3246;DHT22;1635;48.000;10.582;2022-08-11T13:16:44;32.70;96.10
3246;DHT22;1635;48.000;10.582;2022-08-11T13:19:33;32.80;95.70
3246;DHT22;1635;48.000;10.582;2022-08-11T13:22:01;33.20;95.50
3246;DHT22;1635;48.000;10.582;2022-08-11T13:24:31;33.90;95.30
3246;DHT22;1635;48.000;10.582;2022-08-11T13:27:03;34.80;94.00
3246;DHT22;1635;48.000;10.582;2022-08-11T13:29:31;34.80;93.90
3246;DHT22;1635;48.000;10.582;2022-08-11T13:32:00;34.10;93.50
3246;DHT22;1635;48.000;10.582;2022-08-11T13:34:29;33.90;94.00
3246;DHT22;1635;48.000;10.582;2022-08-11T13:37:04;34.10;92.80
3246;DHT22;1635;48.000;10.582;2022-08-11T13:39:32;33.80;93.70
3246;DHT22;1635;48.000;10.582;2022-08-11T13:42:03;33.50;93.90
3246;DHT22;1635;48.000;10.582;2022-08-11T13:44:34;31.90;93.20
3246;DHT22;1635;48.000;10.582;2022-08-11T13:47:04;31.90;93.80
3246;DHT22;1635;48.000;10.582;2022-08-11T13:49:35;32.40;93.60
3246;DHT22;1635;48.000;10.582;2022-08-11T13:52:13;32.80;93.60
3246;DHT22;1635;48.000;10.582;2022-08-11T13:54:42;33.60;94.10
3246;DHT22;1635;48.000;10.582;2022-08-11T13:57:12;34.20;92.40
3246;DHT22;1635;48.000;10.582;2022-08-11T14:00:06;34.20;91.90
3246;DHT22;1635;48.000;10.582;2022-08-11T14:02:51;33.30;91.80
3246;DHT22;1635;48.000;10.582;2022-08-11T14:05:25;31.90;92.70
3246;DHT22;1635;48.000;10.582;2022-08-11T14:08:07;31.40;92.50
3246;DHT22;1635;48.000;10.582;2022-08-11T14:11:00;31.50;93.10
3246;DHT22;1635;48.000;10.582;2022-08-11T14:14:08;31.70;93.50
3246;DHT22;1635;48.000;10.582;2022-08-11T14:16:41;31.40;93.60
3246;DHT22;1635;48.000;10.582;2022-08-11T14:19:12;31.30;93.60
3246;DHT22;1635;48.000;10.582;2022-08-11T14:21:42;31.80;93.20
3246;DHT22;1635;48.000;10.582;2022-08-11T14:24:38;32.20;92.60
3246;DHT22;1635;48.000;10.582;2022-08-11T14:27:08;32.90;92.10
3246;DHT22;1635;48.000;10.582;2022-08-11T14:29:57;33.30;92.00
3246;DHT22;1635;48.000;10.582;2022-08-11T14:32:25;33.10;91.80
3246;DHT22;1635;48.000;10.582;2022-08-11T14:34:55;33.20;91.80
3246;DHT22;1635;48.000;10.582;2022-08-11T14:37:26;33.30;92.80
3246;DHT22;1635;48.000;10.582;2022-08-11T14:39:58;33.60;90.90
3246;DHT22;1635;48.000;10.582;2022-08-11T14:42:31;32.30;91.40
3246;DHT22;1635;48.000;10.582;2022-08-11T14:45:17;31.40;93.00
3246;DHT22;1635;48.000;10.582;2022-08-11T14:48:25;30.70;93.60
3246;DHT22;1635;48.000;10.582;2022-08-11T14:50:53;30.00;94.20
3246;DHT22;1635;48.000;10.582;2022-08-11T14:53:22;29.30;94.20
3246;DHT22;1635;48.000;10.582;2022-08-11T14:55:51;28.70;95.10
3246;DHT22;1635;48.000;10.582;2022-08-11T14:58:39;28.60;95.80
3246;DHT22;1635;48.000;10.582;2022-08-11T15:01:09;28.50;94.60
3246;DHT22;1635;48.000;10.582;2022-08-11T15:03:57;28.60;94.90
3246;DHT22;1635;48.000;10.582;2022-08-11T15:06:46;29.00;95.30
3246;DHT22;1635;48.000;10.582;2022-08-11T15:09:15;28.50;94.20
3246;DHT22;1635;48.000;10.582;2022-08-11T15:11:43;28.20;95.80
3246;DHT22;1635;48.000;10.582;2022-08-11T15:14:31;28.00;95.20
3246;DHT22;1635;48.000;10.582;2022-08-11T15:17:23;27.80;95.50
3246;DHT22;1635;48.000;10.582;2022-08-11T15:20:12;27.60;95.70
3246;DHT22;1635;48.000;10.582;2022-08-11T15:22:59;27.20;95.80
3246;DHT22;1635;48.000;10.582;2022-08-11T15:25:52;27.10;96.00
3246;DHT22;1635;48.000;10.582;2022-08-11T15:28:22;26.80;96.40
3246;DHT22;1635;48.000;10.582;2022-08-11T15:31:10;26.70;96.80
3246;DHT22;1635;48.000;10.582;2022-08-11T15:34:02;26.60;97.10
3246;DHT22;1635;48.000;10.582;2022-08-11T15:36:54;26.40;97.00
3246;DHT22;1635;48.000;10.582;2022-08-11T15:39:49;26.30;97.30
3246;DHT22;1635;48.000;10.582;2022-08-11T15:43:13;26.20;97.00
3246;DHT22;1635;48.000;10.582;2022-08-11T15:46:05;26.20;97.20
3246;DHT22;1635;48.000;10.582;2022-08-11T15:48:58;26.10;97.40
3246;DHT22;1635;48.000;10.582;2022-08-11T15:51:38;26.00;96.40
3246;DHT22;1635;48.000;10.582;2022-08-11T15:54:19;26.00;97.90
3246;DHT22;1635;48.000;10.582;2022-08-11T15:56:51;26.20;97.70
3246;DHT22;1635;48.000;10.582;2022-08-11T15:59:22;26.20;98.00
3246;DHT22;1635;48.000;10.582;2022-08-11T16:02:14;26.20;96.90
3246;DHT22;1635;48.000;10.582;2022-08-11T16:05:04;26.30;97.10
3246;DHT22;1635;48.000;10.582;2022-08-11T16:07:33;26.10;97.40
3246;DHT22;1635;48.000;10.582;2022-08-11T16:10:12;26.10;97.40
3246;DHT22;1635;48.000;10.582;2022-08-11T16:12:49;26.00;97.40
3246;DHT22;1635;48.000;10.582;2022-08-11T16:15:37;26.00;97.00
3246;DHT22;1635;48.000;10.582;2022-08-11T16:18:27;26.00;96.70
3246;DHT22;1635;48.000;10.582;2022-08-11T16:21:13;26.00;97.30
3246;DHT22;1635;48.000;10.582;2022-08-11T16:24:05;25.90;97.00
3246;DHT22;1635;48.000;10.582;2022-08-11T16:26:36;26.00;97.30
3246;DHT22;1635;48.000;10.582;2022-08-11T16:29:25;25.90;96.80
3246;DHT22;1635;48.000;10.582;2022-08-11T16:32:00;25.90;97.10
3246;DHT22;1635;48.000;10.582;2022-08-11T16:35:06;25.70;96.40
3246;DHT22;1635;48.000;10.582;2022-08-11T16:37:54;25.70;96.60
3246;DHT22;1635;48.000;10.582;2022-08-11T16:40:42;25.60;96.60
3246;DHT22;1635;48.000;10.582;2022-08-11T16:43:14;25.50;96.90
3246;DHT22;1635;48.000;10.582;2022-08-11T16:46:03;25.40;96.70
3246;DHT22;1635;48.000;10.582;2022-08-11T16:48:51;25.50;97.00
3246;DHT22;1635;48.000;10.582;2022-08-11T16:51:20;25.40;96.50
3246;DHT22;1635;48.000;10.582;2022-08-11T16:53:50;25.30;97.10
3246;DHT22;1635;48.000;10.582;2022-08-11T16:56:48;25.30;96.70
3246;DHT22;1635;48.000;10.582;2022-08-11T16:59:35;25.20;97.40
3246;DHT22;1635;48.000;10.582;2022-08-11T17:02:10;25.20;97.60
3246;DHT22;1635;48.000;10.582;2022-08-11T17:04:52;25.00;97.30
3246;DHT22;1635;48.000;10.582;2022-08-11T17:07:41;25.00;96.80
3246;DHT22;1635;48.000;10.582;2022-08-11T17:10:34;24.80;97.10
3246;DHT22;1635;48.000;10.582;2022-08-11T17:13:54;24.60;97.00
3246;DHT22;1635;48.000;10.582;2022-08-11T17:16:31;24.50;97.60
3246;DHT22;1635;48.000;10.582;2022-08-11T17:21:57;24.20;97.70
3246;DHT22;1635;48.000;10.582;2022-08-11T17:24:44;24.10;98.00
3246;DHT22;1635;48.000;10.582;2022-08-11T17:27:14;24.00;97.90
3246;DHT22;1635;48.000;10.582;2022-08-11T17:29:55;23.90;98.30
3246;DHT22;1635;48.000;10.582;2022-08-11T17:32:30;23.80;97.90
3246;DHT22;1635;48.000;10.582;2022-08-11T17:35:26;23.70;98.30
3246;DHT22;1635;48.000;10.582;2022-08-11T17:40:38;23.50;97.50
3246;DHT22;1635;48.000;10.582;2022-08-11T17:43:30;23.40;97.70
3246;DHT22;1635;48.000;10.582;2022-08-11T17:46:17;23.30;97.40
3246;DHT22;1635;48.000;10.582;2022-08-11T17:49:05;23.20;97.60
3246;DHT22;1635;48.000;10.582;2022-08-11T17:51:36;23.20;97.50
3246;DHT22;1635;48.000;10.582;2022-08-11T17:54:24;23.10;97.20
3246;DHT22;1635;48.000;10.582;2022-08-11T17:57:12;23.10;97.10
3246;DHT22;1635;48.000;10.582;2022-08-11T18:00:02;23.00;97.00
3246;DHT22;1635;48.000;10.582;2022-08-11T18:02:40;22.90;97.20
3246;DHT22;1635;48.000;10.582;2022-08-11T18:05:33;22.80;97.60
3246;DHT22;1635;48.000;10.582;2022-08-11T18:08:04;22.60;97.70
3246;DHT22;1635;48.000;10.582;2022-08-11T18:10:53;22.50;97.30
3246;DHT22;1635;48.000;10.582;2022-08-11T18:13:50;22.40;97.80
3246;DHT22;1635;48.000;10.582;2022-08-11T18:16:37;22.30;97.80
3246;DHT22;1635;48.000;10.582;2022-08-11T18:19:30;22.10;98.00
3246;DHT22;1635;48.000;10.582;2022-08-11T18:22:21;22.00;98.00
3246;DHT22;1635;48.000;10.582;2022-08-11T18:25:19;21.80;98.00
3246;DHT22;1635;48.000;10.582;2022-08-11T18:28:13;21.70;98.20
3246;DHT22;1635;48.000;10.582;2022-08-11T18:31:00;21.60;98.30
3246;DHT22;1635;48.000;10.582;2022-08-11T18:33:56;21.60;98.50
3246;DHT22;1635;48.000;10.582;2022-08-11T18:37:03;21.40;98.70
3246;DHT22;1635;48.000;10.582;2022-08-11T18:40:01;21.30;98.90
3246;DHT22;1635;48.000;10.582;2022-08-11T18:42:50;21.20;99.10
3246;DHT22;1635;48.000;10.582;2022-08-11T18:45:39;21.10;99.30
3246;DHT22;1635;48.000;10.582;2022-08-11T18:48:38;21.00;99.40
3246;DHT22;1635;48.000;10.582;2022-08-11T18:51:27;20.90;99.50
3246;DHT22;1635;48.000;10.582;2022-08-11T18:54:15;20.80;99.70
3246;DHT22;1635;48.000;10.582;2022-08-11T18:57:05;20.70;99.90
3246;DHT22;1635;48.000;10.582;2022-08-11T18:59:52;20.60;99.90
3246;DHT22;1635;48.000;10.582;2022-08-11T19:02:40;20.40;99.90
3246;DHT22;1635;48.000;10.582;2022-08-11T19:05:31;20.30;99.90
3246;DHT22;1635;48.000;10.582;2022-08-11T19:08:48;20.10;99.90
3246;DHT22;1635;48.000;10.582;2022-08-11T19:11:38;20.10;99.90
3246;DHT22;1635;48.000;10.582;2022-08-11T19:14:26;20.00;99.90
3246;DHT22;1635;48.000;10.582;2022-08-11T19:17:15;19.90;99.90
3246;DHT22;1635;48.000;10.582;2022-08-11T19:20:17;19.80;99.90
3246;DHT22;1635;48.000;10.582;2022-08-11T19:23:06;19.60;99.90
3246;DHT22;1635;48.000;10.582;2022-08-11T19:25:56;19.50;99.90
3246;DHT22;1635;48.000;10.582;2022-08-11T19:28:46;19.40;99.90
3246;DHT22;1635;48.000;10.582;2022-08-11T19:31:33;19.30;99.90
3246;DHT22;1635;48.000;10.582;2022-08-11T19:34:22;19.20;99.90
3246;DHT22;1635;48.000;10.582;2022-08-11T19:37:10;19.10;99.90
3246;DHT22;1635;48.000;10.582;2022-08-11T19:40:07;19.00;99.90
3246;DHT22;1635;48.000;10.582;2022-08-11T19:42:57;18.90;99.90
3246;DHT22;1635;48.000;10.582;2022-08-11T19:45:58;18.80;99.90
3246;DHT22;1635;48.000;10.582;2022-08-11T19:48:50;18.70;99.90
3246;DHT22;1635;48.000;10.582;2022-08-11T19:51:37;18.50;99.90
3246;DHT22;1635;48.000;10.582;2022-08-11T19:54:26;18.40;99.90
3246;DHT22;1635;48.000;10.582;2022-08-11T19:57:14;18.30;99.90
3246;DHT22;1635;48.000;10.582;2022-08-11T20:00:13;18.30;99.90
3246;DHT22;1635;48.000;10.582;2022-08-11T20:03:01;18.30;99.90
3246;DHT22;1635;48.000;10.582;2022-08-11T20:05:49;18.20;99.90
3246;DHT22;1635;48.000;10.582;2022-08-11T20:08:40;18.10;99.90
3246;DHT22;1635;48.000;10.582;2022-08-11T20:11:35;18.00;99.90
3246;DHT22;1635;48.000;10.582;2022-08-11T20:14:23;17.90;99.90
3246;DHT22;1635;48.000;10.582;2022-08-11T20:17:12;17.80;99.90
3246;DHT22;1635;48.000;10.582;2022-08-11T20:20:02;17.70;99.90
3246;DHT22;1635;48.000;10.582;2022-08-11T20:22:55;17.60;99.90
3246;DHT22;1635;48.000;10.582;2022-08-11T20:25:42;17.50;99.90
3246;DHT22;1635;48.000;10.582;2022-08-11T20:28:50;17.40;99.90
3246;DHT22;1635;48.000;10.582;2022-08-11T20:31:37;17.20;99.90
3246;DHT22;1635;48.000;10.582;2022-08-11T20:34:25;17.10;99.90
3246;DHT22;1635;48.000;10.582;2022-08-11T20:37:11;17.00;99.90
3246;DHT22;1635;48.000;10.582;2022-08-11T20:39:58;17.00;99.90
3246;DHT22;1635;48.000;10.582;2022-08-11T20:42:49;16.90;99.90
3246;DHT22;1635;48.000;10.582;2022-08-11T20:45:56;16.80;99.90
3246;DHT22;1635;48.000;10.582;2022-08-11T20:48:43;16.70;99.90
3246;DHT22;1635;48.000;10.582;2022-08-11T20:51:31;16.70;99.90
3246;DHT22;1635;48.000;10.582;2022-08-11T20:54:22;16.60;99.90
3246;DHT22;1635;48.000;10.582;2022-08-11T20:57:13;16.60;99.90
3246;DHT22;1635;48.000;10.582;2022-08-11T21:00:21;16.60;99.90
3246;DHT22;1635;48.000;10.582;2022-08-11T21:03:09;16.60;99.90
3246;DHT22;1635;48.000;10.582;2022-08-11T21:06:12;16.60;99.90
3246;DHT22;1635;48.000;10.582;2022-08-11T21:09:04;16.60;99.90
3246;DHT22;1635;48.000;10.582;2022-08-11T21:12:12;16.40;99.90
3246;DHT22;1635;48.000;10.582;2022-08-11T21:15:06;16.20;99.90